sensor_id;sensor_type;location;lat;lon;timestamp;temperature;humidity
27164;DHT22;14685;50.618;7.024;2024-02-15T00:00:21;13.80;99.90
27164;DHT22;14685;50.618;7.024;2024-02-15T00:02:49;13.80;99.90
27164;DHT22;14685;50.618;7.024;2024-02-15T00:05:30;13.70;99.90
27164;DHT22;14685;50.618;7.024;2024-02-15T00:07:58;13.70;99.90
27164;DHT22;14685;50.618;7.024;2024-02-15T00:10:25;13.70;99.90
27164;DHT22;14685;50.618;7.024;2024-02-15T00:12:52;13.70;99.90
27164;DHT22;14685;50.618;7.024;2024-02-15T00:15:19;13.70;99.90
27164;DHT22;14685;50.618;7.024;2024-02-15T00:17:46;13.70;99.90
27164;DHT22;14685;50.618;7.024;2024-02-15T00:20:13;13.60;99.90
27164;DHT22;14685;50.618;7.024;2024-02-15T00:22:41;13.70;99.90
27164;DHT22;14685;50.618;7.024;2024-02-15T00:25:08;13.70;99.90
27164;DHT22;14685;50.618;7.024;2024-02-15T00:27:38;13.70;99.90
27164;DHT22;14685;50.618;7.024;2024-02-15T00:30:05;13.70;99.90
27164;DHT22;14685;50.618;7.024;2024-02-15T00:32:34;13.70;99.90
27164;DHT22;14685;50.618;7.024;2024-02-15T00:35:02;13.70;99.90
27164;DHT22;14685;50.618;7.024;2024-02-15T00:37:29;13.70;99.90
27164;DHT22;14685;50.618;7.024;2024-02-15T00:39:56;13.80;99.90
27164;DHT22;14685;50.618;7.024;2024-02-15T00:42:23;13.80;99.90
27164;DHT22;14685;50.618;7.024;2024-02-15T00:44:52;13.80;99.90
27164;DHT22;14685;50.618;7.024;2024-02-15T00:47:19;13.80;99.90
27164;DHT22;14685;50.618;7.024;2024-02-15T00:49:47;13.80;99.90
27164;DHT22;14685;50.618;7.024;2024-02-15T00:52:17;13.80;99.90
27164;DHT22;14685;50.618;7.024;2024-02-15T00:54:47;13.90;99.90
27164;DHT22;14685;50.618;7.024;2024-02-15T00:57:14;13.90;99.90
27164;DHT22;14685;50.618;7.024;2024-02-15T00:59:41;13.90;99.90
27164;DHT22;14685;50.618;7.024;2024-02-15T01:02:08;13.80;99.90
27164;DHT22;14685;50.618;7.024;2024-02-15T01:04:35;13.80;99.90
27164;DHT22;14685;50.618;7.024;2024-02-15T01:07:02;13.80;99.90
27164;DHT22;14685;50.618;7.024;2024-02-15T01:09:31;13.80;99.90
27164;DHT22;14685;50.618;7.024;2024-02-15T01:11:58;13.70;99.90
27164;DHT22;14685;50.618;7.024;2024-02-15T01:14:25;13.70;99.90
27164;DHT22;14685;50.618;7.024;2024-02-15T01:16:56;13.60;99.90
27164;DHT22;14685;50.618;7.024;2024-02-15T01:19:23;13.50;99.90
27164;DHT22;14685;50.618;7.024;2024-02-15T01:22:02;13.50;99.90
27164;DHT22;14685;50.618;7.024;2024-02-15T01:24:30;13.50;99.90
27164;DHT22;14685;50.618;7.024;2024-02-15T01:27:04;13.40;99.90
27164;DHT22;14685;50.618;7.024;2024-02-15T01:29:35;13.40;99.90
27164;DHT22;14685;50.618;7.024;2024-02-15T01:32:06;13.40;99.90
27164;DHT22;14685;50.618;7.024;2024-02-15T01:34:33;13.40;99.90
27164;DHT22;14685;50.618;7.024;2024-02-15T01:37:01;13.40;99.90
27164;DHT22;14685;50.618;7.024;2024-02-15T01:39:28;13.40;99.90
27164;DHT22;14685;50.618;7.024;2024-02-15T01:41:55;13.30;99.90
27164;DHT22;14685;50.618;7.024;2024-02-15T01:44:23;13.30;99.90
27164;DHT22;14685;50.618;7.024;2024-02-15T01:47:00;13.40;99.90
27164;DHT22;14685;50.618;7.024;2024-02-15T01:49:32;13.40;99.90
27164;DHT22;14685;50.618;7.024;2024-02-15T01:52:13;13.40;99.90
27164;DHT22;14685;50.618;7.024;2024-02-15T01:54:46;13.50;99.90
27164;DHT22;14685;50.618;7.024;2024-02-15T01:57:27;13.50;99.90
27164;DHT22;14685;50.618;7.024;2024-02-15T01:59:58;13.60;99.90
27164;DHT22;14685;50.618;7.024;2024-02-15T02:02:41;13.60;99.90
27164;DHT22;14685;50.618;7.024;2024-02-15T02:05:11;13.50;99.90
27164;DHT22;14685;50.618;7.024;2024-02-15T02:07:44;13.50;99.90
27164;DHT22;14685;50.618;7.024;2024-02-15T02:10:25;13.50;99.90
27164;DHT22;14685;50.618;7.024;2024-02-15T02:13:09;13.60;99.90
27164;DHT22;14685;50.618;7.024;2024-02-15T02:15:38;13.60;99.90
27164;DHT22;14685;50.618;7.024;2024-02-15T02:18:09;13.60;99.90
27164;DHT22;14685;50.618;7.024;2024-02-15T02:20:38;13.50;99.90
27164;DHT22;14685;50.618;7.024;2024-02-15T02:23:16;13.60;99.90
27164;DHT22;14685;50.618;7.024;2024-02-15T02:25:47;13.50;99.90
27164;DHT22;14685;50.618;7.024;2024-02-15T02:28:16;13.50;99.90
27164;DHT22;14685;50.618;7.024;2024-02-15T02:30:47;13.50;99.90
27164;DHT22;14685;50.618;7.024;2024-02-15T02:33:14;13.50;99.90
27164;DHT22;14685;50.618;7.024;2024-02-15T02:35:47;13.50;99.90
27164;DHT22;14685;50.618;7.024;2024-02-15T02:38:15;13.50;99.90
27164;DHT22;14685;50.618;7.024;2024-02-15T02:40:45;13.50;99.90
27164;DHT22;14685;50.618;7.024;2024-02-15T02:44:20;13.50;99.90
27164;DHT22;14685;50.618;7.024;2024-02-15T02:47:58;13.50;99.90
27164;DHT22;14685;50.618;7.024;2024-02-15T02:51:02;13.50;99.90
27164;DHT22;14685;50.618;7.024;2024-02-15T02:53:34;13.50;99.90
27164;DHT22;14685;50.618;7.024;2024-02-15T02:56:11;13.50;99.90
27164;DHT22;14685;50.618;7.024;2024-02-15T02:58:40;13.40;99.90
27164;DHT22;14685;50.618;7.024;2024-02-15T03:01:11;13.50;99.90
27164;DHT22;14685;50.618;7.024;2024-02-15T03:03:38;13.40;99.90
27164;DHT22;14685;50.618;7.024;2024-02-15T03:06:09;13.40;99.90
27164;DHT22;14685;50.618;7.024;2024-02-15T03:08:45;13.40;99.90
27164;DHT22;14685;50.618;7.024;2024-02-15T03:11:26;13.40;99.90
27164;DHT22;14685;50.618;7.024;2024-02-15T03:13:53;13.40;99.90
27164;DHT22;14685;50.618;7.024;2024-02-15T03:16:23;13.40;99.90
27164;DHT22;14685;50.618;7.024;2024-02-15T03:18:52;13.40;99.90
27164;DHT22;14685;50.618;7.024;2024-02-15T03:21:20;13.40;99.90
27164;DHT22;14685;50.618;7.024;2024-02-15T03:23:47;13.40;99.90
27164;DHT22;14685;50.618;7.024;2024-02-15T03:26:14;13.30;99.90
27164;DHT22;14685;50.618;7.024;2024-02-15T03:28:42;13.30;99.90
27164;DHT22;14685;50.618;7.024;2024-02-15T03:31:11;13.30;99.90
27164;DHT22;14685;50.618;7.024;2024-02-15T03:33:44;13.30;99.90
27164;DHT22;14685;50.618;7.024;2024-02-15T03:36:11;13.30;99.90
27164;DHT22;14685;50.618;7.024;2024-02-15T03:38:43;13.20;99.90
27164;DHT22;14685;50.618;7.024;2024-02-15T03:41:13;13.20;99.90
27164;DHT22;14685;50.618;7.024;2024-02-15T03:43:46;13.20;99.90
27164;DHT22;14685;50.618;7.024;2024-02-15T03:46:23;13.20;99.90
27164;DHT22;14685;50.618;7.024;2024-02-15T03:49:02;13.20;99.90
27164;DHT22;14685;50.618;7.024;2024-02-15T03:51:41;13.20;99.90
27164;DHT22;14685;50.618;7.024;2024-02-15T03:54:23;13.20;99.90
27164;DHT22;14685;50.618;7.024;2024-02-15T03:56:54;13.20;99.90
27164;DHT22;14685;50.618;7.024;2024-02-15T03:59:29;13.30;99.90
27164;DHT22;14685;50.618;7.024;2024-02-15T04:01:59;13.10;99.90
27164;DHT22;14685;50.618;7.024;2024-02-15T04:04:27;13.10;99.90
27164;DHT22;14685;50.618;7.024;2024-02-15T04:06:57;13.20;99.90
27164;DHT22;14685;50.618;7.024;2024-02-15T04:09:25;13.10;99.90
27164;DHT22;14685;50.618;7.024;2024-02-15T04:11:54;13.10;99.90
27164;DHT22;14685;50.618;7.024;2024-02-15T04:14:24;13.10;99.90
27164;DHT22;14685;50.618;7.024;2024-02-15T04:16:54;13.10;99.90
27164;DHT22;14685;50.618;7.024;2024-02-15T04:19:26;13.10;99.90
27164;DHT22;14685;50.618;7.024;2024-02-15T04:21:54;13.10;99.90
27164;DHT22;14685;50.618;7.024;2024-02-15T04:24:28;13.00;99.90
27164;DHT22;14685;50.618;7.024;2024-02-15T04:26:57;13.00;99.90
27164;DHT22;14685;50.618;7.024;2024-02-15T04:29:27;13.00;99.90
27164;DHT22;14685;50.618;7.024;2024-02-15T04:31:55;12.90;99.90
27164;DHT22;14685;50.618;7.024;2024-02-15T04:34:23;12.90;99.90
27164;DHT22;14685;50.618;7.024;2024-02-15T04:36:51;12.90;99.90
27164;DHT22;14685;50.618;7.024;2024-02-15T04:39:22;13.00;99.90
27164;DHT22;14685;50.618;7.024;2024-02-15T04:41:54;13.00;99.90
27164;DHT22;14685;50.618;7.024;2024-02-15T04:44:23;13.00;99.90
27164;DHT22;14685;50.618;7.024;2024-02-15T04:46:55;13.00;99.90
27164;DHT22;14685;50.618;7.024;2024-02-15T04:49:27;13.00;99.90
27164;DHT22;14685;50.618;7.024;2024-02-15T04:52:09;13.10;99.90
27164;DHT22;14685;50.618;7.024;2024-02-15T04:54:36;13.10;99.90
27164;DHT22;14685;50.618;7.024;2024-02-15T04:57:04;13.10;99.90
27164;DHT22;14685;50.618;7.024;2024-02-15T04:59:36;13.10;99.90
27164;DHT22;14685;50.618;7.024;2024-02-15T05:02:05;13.20;99.90
27164;DHT22;14685;50.618;7.024;2024-02-15T05:04:36;13.20;99.90
27164;DHT22;14685;50.618;7.024;2024-02-15T05:07:03;13.10;99.90
27164;DHT22;14685;50.618;7.024;2024-02-15T05:09:33;13.10;99.90
27164;DHT22;14685;50.618;7.024;2024-02-15T05:12:01;13.10;99.90
27164;DHT22;14685;50.618;7.024;2024-02-15T05:14:35;13.10;99.90
27164;DHT22;14685;50.618;7.024;2024-02-15T05:17:06;13.10;99.90
27164;DHT22;14685;50.618;7.024;2024-02-15T05:19:40;12.90;99.90
27164;DHT22;14685;50.618;7.024;2024-02-15T05:22:15;12.90;99.90
27164;DHT22;14685;50.618;7.024;2024-02-15T05:24:44;12.90;99.90
27164;DHT22;14685;50.618;7.024;2024-02-15T05:27:13;12.90;99.90
27164;DHT22;14685;50.618;7.024;2024-02-15T05:29:40;12.80;99.90
27164;DHT22;14685;50.618;7.024;2024-02-15T05:32:11;12.90;99.90
27164;DHT22;14685;50.618;7.024;2024-02-15T05:34:39;13.00;99.90
27164;DHT22;14685;50.618;7.024;2024-02-15T05:37:07;13.00;99.90
27164;DHT22;14685;50.618;7.024;2024-02-15T05:39:34;12.90;99.90
27164;DHT22;14685;50.618;7.024;2024-02-15T05:42:03;13.00;99.90
27164;DHT22;14685;50.618;7.024;2024-02-15T05:44:31;13.00;99.90
27164;DHT22;14685;50.618;7.024;2024-02-15T05:46:58;13.00;99.90
27164;DHT22;14685;50.618;7.024;2024-02-15T05:49:28;12.90;99.90
27164;DHT22;14685;50.618;7.024;2024-02-15T05:51:56;13.00;99.90
27164;DHT22;14685;50.618;7.024;2024-02-15T05:54:24;13.00;99.90
27164;DHT22;14685;50.618;7.024;2024-02-15T05:56:53;13.00;99.90
27164;DHT22;14685;50.618;7.024;2024-02-15T05:59:38;13.00;99.90
27164;DHT22;14685;50.618;7.024;2024-02-15T06:02:09;13.10;99.90
27164;DHT22;14685;50.618;7.024;2024-02-15T06:04:41;13.20;99.90
27164;DHT22;14685;50.618;7.024;2024-02-15T06:07:12;13.10;99.90
27164;DHT22;14685;50.618;7.024;2024-02-15T06:09:42;13.10;99.90
27164;DHT22;14685;50.618;7.024;2024-02-15T06:12:09;13.20;99.90
27164;DHT22;14685;50.618;7.024;2024-02-15T06:14:36;13.20;99.90
27164;DHT22;14685;50.618;7.024;2024-02-15T06:17:06;13.20;99.90
27164;DHT22;14685;50.618;7.024;2024-02-15T06:19:36;13.20;99.90
27164;DHT22;14685;50.618;7.024;2024-02-15T06:22:20;13.20;99.90
27164;DHT22;14685;50.618;7.024;2024-02-15T06:25:10;13.20;99.90
27164;DHT22;14685;50.618;7.024;2024-02-15T06:27:38;13.20;99.90
27164;DHT22;14685;50.618;7.024;2024-02-15T06:30:12;13.20;99.90
27164;DHT22;14685;50.618;7.024;2024-02-15T06:32:58;13.20;99.90
27164;DHT22;14685;50.618;7.024;2024-02-15T06:35:44;13.20;99.90
27164;DHT22;14685;50.618;7.024;2024-02-15T06:38:30;13.10;99.90
27164;DHT22;14685;50.618;7.024;2024-02-15T06:41:16;13.20;99.90
27164;DHT22;14685;50.618;7.024;2024-02-15T06:43:53;13.20;99.90
27164;DHT22;14685;50.618;7.024;2024-02-15T06:46:21;13.10;99.90
27164;DHT22;14685;50.618;7.024;2024-02-15T06:49:02;13.10;99.90
27164;DHT22;14685;50.618;7.024;2024-02-15T06:51:32;13.10;99.90
27164;DHT22;14685;50.618;7.024;2024-02-15T06:53:59;13.10;99.90
27164;DHT22;14685;50.618;7.024;2024-02-15T06:56:26;13.10;99.90
27164;DHT22;14685;50.618;7.024;2024-02-15T06:58:53;13.00;99.90
27164;DHT22;14685;50.618;7.024;2024-02-15T07:01:24;13.00;99.90
27164;DHT22;14685;50.618;7.024;2024-02-15T07:03:52;13.00;99.90
27164;DHT22;14685;50.618;7.024;2024-02-15T07:06:21;13.00;99.90
27164;DHT22;14685;50.618;7.024;2024-02-15T07:08:48;12.90;99.90
27164;DHT22;14685;50.618;7.024;2024-02-15T07:11:17;13.00;99.90
27164;DHT22;14685;50.618;7.024;2024-02-15T07:13:44;13.00;99.90
27164;DHT22;14685;50.618;7.024;2024-02-15T07:16:11;13.00;99.90
27164;DHT22;14685;50.618;7.024;2024-02-15T07:18:38;12.90;99.90
27164;DHT22;14685;50.618;7.024;2024-02-15T07:21:05;12.90;99.90
27164;DHT22;14685;50.618;7.024;2024-02-15T07:23:38;12.90;99.90
27164;DHT22;14685;50.618;7.024;2024-02-15T07:26:05;12.90;99.90
27164;DHT22;14685;50.618;7.024;2024-02-15T07:28:32;13.00;99.90
27164;DHT22;14685;50.618;7.024;2024-02-15T07:30:59;13.00;99.90
27164;DHT22;14685;50.618;7.024;2024-02-15T07:33:29;12.90;99.90
27164;DHT22;14685;50.618;7.024;2024-02-15T07:35:57;13.00;99.90
27164;DHT22;14685;50.618;7.024;2024-02-15T07:38:26;13.00;99.90
27164;DHT22;14685;50.618;7.024;2024-02-15T07:40:53;13.00;99.90
27164;DHT22;14685;50.618;7.024;2024-02-15T07:43:20;13.00;99.90
27164;DHT22;14685;50.618;7.024;2024-02-15T07:45:47;13.00;99.90
27164;DHT22;14685;50.618;7.024;2024-02-15T07:48:16;13.00;99.90
27164;DHT22;14685;50.618;7.024;2024-02-15T07:50:43;13.00;99.90
27164;DHT22;14685;50.618;7.024;2024-02-15T07:53:12;13.00;99.90
27164;DHT22;14685;50.618;7.024;2024-02-15T07:55:40;13.00;99.90
27164;DHT22;14685;50.618;7.024;2024-02-15T07:58:08;13.00;99.90
27164;DHT22;14685;50.618;7.024;2024-02-15T08:00:36;13.10;99.90
27164;DHT22;14685;50.618;7.024;2024-02-15T08:03:05;13.10;99.90
27164;DHT22;14685;50.618;7.024;2024-02-15T08:05:32;13.10;99.90
27164;DHT22;14685;50.618;7.024;2024-02-15T08:08:00;13.20;99.90
27164;DHT22;14685;50.618;7.024;2024-02-15T08:10:27;13.20;99.90
27164;DHT22;14685;50.618;7.024;2024-02-15T08:12:55;13.10;99.90
27164;DHT22;14685;50.618;7.024;2024-02-15T08:15:25;13.20;99.90
27164;DHT22;14685;50.618;7.024;2024-02-15T08:17:55;13.30;99.90
27164;DHT22;14685;50.618;7.024;2024-02-15T08:20:22;13.30;99.90
27164;DHT22;14685;50.618;7.024;2024-02-15T08:22:51;13.30;99.90
27164;DHT22;14685;50.618;7.024;2024-02-15T08:25:17;13.30;99.90
27164;DHT22;14685;50.618;7.024;2024-02-15T08:27:47;13.30;99.90
27164;DHT22;14685;50.618;7.024;2024-02-15T08:30:17;13.30;99.90
27164;DHT22;14685;50.618;7.024;2024-02-15T08:32:50;13.40;99.90
27164;DHT22;14685;50.618;7.024;2024-02-15T08:35:18;13.40;99.90
27164;DHT22;14685;50.618;7.024;2024-02-15T08:37:45;13.40;99.90
27164;DHT22;14685;50.618;7.024;2024-02-15T08:40:14;13.40;99.90
27164;DHT22;14685;50.618;7.024;2024-02-15T08:42:42;13.40;99.90
27164;DHT22;14685;50.618;7.024;2024-02-15T08:45:10;13.40;99.90
27164;DHT22;14685;50.618;7.024;2024-02-15T08:47:38;13.40;99.90
27164;DHT22;14685;50.618;7.024;2024-02-15T08:50:07;13.50;99.90
27164;DHT22;14685;50.618;7.024;2024-02-15T08:52:37;13.50;99.90
27164;DHT22;14685;50.618;7.024;2024-02-15T08:55:09;13.50;99.90
27164;DHT22;14685;50.618;7.024;2024-02-15T08:57:37;13.50;99.90
27164;DHT22;14685;50.618;7.024;2024-02-15T09:00:05;13.50;99.90
27164;DHT22;14685;50.618;7.024;2024-02-15T09:02:37;13.50;99.90
27164;DHT22;14685;50.618;7.024;2024-02-15T09:05:04;13.50;99.90
27164;DHT22;14685;50.618;7.024;2024-02-15T09:07:31;13.60;99.90
27164;DHT22;14685;50.618;7.024;2024-02-15T09:09:58;13.50;99.90
27164;DHT22;14685;50.618;7.024;2024-02-15T09:12:25;13.50;99.90
27164;DHT22;14685;50.618;7.024;2024-02-15T09:14:52;13.50;99.90
27164;DHT22;14685;50.618;7.024;2024-02-15T09:17:19;13.50;99.90
27164;DHT22;14685;50.618;7.024;2024-02-15T09:19:49;13.60;99.90
27164;DHT22;14685;50.618;7.024;2024-02-15T09:22:18;13.60;99.90
27164;DHT22;14685;50.618;7.024;2024-02-15T09:24:46;13.70;99.90
27164;DHT22;14685;50.618;7.024;2024-02-15T09:27:13;13.70;99.90
27164;DHT22;14685;50.618;7.024;2024-02-15T09:29:40;13.70;99.90
27164;DHT22;14685;50.618;7.024;2024-02-15T09:32:07;13.80;99.90
27164;DHT22;14685;50.618;7.024;2024-02-15T09:34:34;13.90;99.90
27164;DHT22;14685;50.618;7.024;2024-02-15T09:37:01;13.90;99.90
27164;DHT22;14685;50.618;7.024;2024-02-15T09:39:28;14.00;99.90
27164;DHT22;14685;50.618;7.024;2024-02-15T09:41:55;14.10;99.90
27164;DHT22;14685;50.618;7.024;2024-02-15T09:44:28;14.20;99.90
27164;DHT22;14685;50.618;7.024;2024-02-15T09:47:03;14.30;99.90
27164;DHT22;14685;50.618;7.024;2024-02-15T09:49:38;14.40;99.90
27164;DHT22;14685;50.618;7.024;2024-02-15T09:52:08;14.50;99.90
27164;DHT22;14685;50.618;7.024;2024-02-15T09:54:40;14.60;99.90
27164;DHT22;14685;50.618;7.024;2024-02-15T09:57:11;14.60;99.90
27164;DHT22;14685;50.618;7.024;2024-02-15T09:59:40;14.70;99.90
27164;DHT22;14685;50.618;7.024;2024-02-15T10:02:09;14.70;99.90
27164;DHT22;14685;50.618;7.024;2024-02-15T10:04:39;14.80;99.90
27164;DHT22;14685;50.618;7.024;2024-02-15T10:07:07;14.90;99.90
27164;DHT22;14685;50.618;7.024;2024-02-15T10:09:37;14.90;99.90
27164;DHT22;14685;50.618;7.024;2024-02-15T10:12:05;14.90;99.90
27164;DHT22;14685;50.618;7.024;2024-02-15T10:14:34;14.90;99.90
27164;DHT22;14685;50.618;7.024;2024-02-15T10:17:08;14.90;99.90
27164;DHT22;14685;50.618;7.024;2024-02-15T10:19:38;15.00;99.90
27164;DHT22;14685;50.618;7.024;2024-02-15T10:22:07;15.00;99.90
27164;DHT22;14685;50.618;7.024;2024-02-15T10:24:35;15.00;99.90
27164;DHT22;14685;50.618;7.024;2024-02-15T10:27:04;15.10;99.90
27164;DHT22;14685;50.618;7.024;2024-02-15T10:29:34;15.20;99.90
27164;DHT22;14685;50.618;7.024;2024-02-15T10:32:02;15.20;99.90
27164;DHT22;14685;50.618;7.024;2024-02-15T10:34:30;15.20;99.90
27164;DHT22;14685;50.618;7.024;2024-02-15T10:37:11;15.30;99.90
27164;DHT22;14685;50.618;7.024;2024-02-15T10:39:38;15.40;99.90
27164;DHT22;14685;50.618;7.024;2024-02-15T10:42:07;15.40;99.90
27164;DHT22;14685;50.618;7.024;2024-02-15T10:44:34;15.40;99.90
27164;DHT22;14685;50.618;7.024;2024-02-15T10:47:02;15.50;99.90
27164;DHT22;14685;50.618;7.024;2024-02-15T10:49:34;15.50;99.90
27164;DHT22;14685;50.618;7.024;2024-02-15T10:52:04;15.60;99.90
27164;DHT22;14685;50.618;7.024;2024-02-15T10:57:10;15.60;99.90
27164;DHT22;14685;50.618;7.024;2024-02-15T10:59:48;15.70;99.90
27164;DHT22;14685;50.618;7.024;2024-02-15T11:02:30;15.70;99.90
27164;DHT22;14685;50.618;7.024;2024-02-15T11:05:08;15.80;99.90
27164;DHT22;14685;50.618;7.024;2024-02-15T11:07:39;15.90;99.90
27164;DHT22;14685;50.618;7.024;2024-02-15T11:10:07;15.90;99.90
27164;DHT22;14685;50.618;7.024;2024-02-15T11:12:38;16.00;99.90
27164;DHT22;14685;50.618;7.024;2024-02-15T11:15:08;16.10;99.90
27164;DHT22;14685;50.618;7.024;2024-02-15T11:20:28;16.10;99.90
27164;DHT22;14685;50.618;7.024;2024-02-15T11:23:00;16.20;99.90
27164;DHT22;14685;50.618;7.024;2024-02-15T11:25:36;16.20;99.90
27164;DHT22;14685;50.618;7.024;2024-02-15T11:30:54;16.30;99.90
27164;DHT22;14685;50.618;7.024;2024-02-15T11:36:09;16.40;99.90
27164;DHT22;14685;50.618;7.024;2024-02-15T11:38:38;16.40;99.90
27164;DHT22;14685;50.618;7.024;2024-02-15T11:41:18;16.50;99.90
27164;DHT22;14685;50.618;7.024;2024-02-15T11:43:45;16.50;99.90
27164;DHT22;14685;50.618;7.024;2024-02-15T11:46:20;16.50;99.90
27164;DHT22;14685;50.618;7.024;2024-02-15T11:48:48;16.60;99.90
27164;DHT22;14685;50.618;7.024;2024-02-15T11:54:13;16.60;99.90
27164;DHT22;14685;50.618;7.024;2024-02-15T11:59:15;16.60;99.90
27164;DHT22;14685;50.618;7.024;2024-02-15T12:01:56;16.60;99.90
27164;DHT22;14685;50.618;7.024;2024-02-15T12:04:43;16.60;99.90
27164;DHT22;14685;50.618;7.024;2024-02-15T12:07:29;16.70;99.90
27164;DHT22;14685;50.618;7.024;2024-02-15T12:10:19;16.70;99.90
27164;DHT22;14685;50.618;7.024;2024-02-15T12:13:18;16.70;99.90
27164;DHT22;14685;50.618;7.024;2024-02-15T12:16:03;16.70;99.90
27164;DHT22;14685;50.618;7.024;2024-02-15T12:18:49;16.80;99.90
27164;DHT22;14685;50.618;7.024;2024-02-15T12:21:25;16.80;99.90
27164;DHT22;14685;50.618;7.024;2024-02-15T12:23:53;16.80;99.90
27164;DHT22;14685;50.618;7.024;2024-02-15T12:26:20;16.80;99.90
27164;DHT22;14685;50.618;7.024;2024-02-15T12:28:51;16.80;99.90
27164;DHT22;14685;50.618;7.024;2024-02-15T12:31:22;16.90;99.90
27164;DHT22;14685;50.618;7.024;2024-02-15T12:34:03;16.90;99.90
27164;DHT22;14685;50.618;7.024;2024-02-15T12:36:35;16.90;99.90
27164;DHT22;14685;50.618;7.024;2024-02-15T12:39:06;16.90;99.90
27164;DHT22;14685;50.618;7.024;2024-02-15T12:41:50;16.90;99.90
27164;DHT22;14685;50.618;7.024;2024-02-15T12:44:18;16.90;99.90
27164;DHT22;14685;50.618;7.024;2024-02-15T12:46:55;16.90;99.90
27164;DHT22;14685;50.618;7.024;2024-02-15T12:51:54;17.00;99.90
27164;DHT22;14685;50.618;7.024;2024-02-15T12:54:41;17.00;99.90
27164;DHT22;14685;50.618;7.024;2024-02-15T12:57:09;17.00;99.90
27164;DHT22;14685;50.618;7.024;2024-02-15T12:59:43;17.10;99.90
27164;DHT22;14685;50.618;7.024;2024-02-15T13:02:11;17.10;99.90
27164;DHT22;14685;50.618;7.024;2024-02-15T13:04:41;17.10;99.90
27164;DHT22;14685;50.618;7.024;2024-02-15T13:07:08;17.10;99.90
27164;DHT22;14685;50.618;7.024;2024-02-15T13:09:36;17.20;99.90
27164;DHT22;14685;50.618;7.024;2024-02-15T13:12:03;17.20;99.90
27164;DHT22;14685;50.618;7.024;2024-02-15T13:14:31;17.20;99.90
27164;DHT22;14685;50.618;7.024;2024-02-15T13:16:58;17.20;99.90
27164;DHT22;14685;50.618;7.024;2024-02-15T13:19:25;17.20;99.90
27164;DHT22;14685;50.618;7.024;2024-02-15T13:21:53;17.20;99.90
27164;DHT22;14685;50.618;7.024;2024-02-15T13:24:24;17.20;99.90
27164;DHT22;14685;50.618;7.024;2024-02-15T13:26:53;17.20;99.90
27164;DHT22;14685;50.618;7.024;2024-02-15T13:29:24;17.20;99.90
27164;DHT22;14685;50.618;7.024;2024-02-15T13:31:51;17.20;99.90
27164;DHT22;14685;50.618;7.024;2024-02-15T13:34:18;17.20;99.90
27164;DHT22;14685;50.618;7.024;2024-02-15T13:36:46;17.30;99.90
27164;DHT22;14685;50.618;7.024;2024-02-15T13:39:13;17.30;99.90
27164;DHT22;14685;50.618;7.024;2024-02-15T13:41:40;17.30;99.90
27164;DHT22;14685;50.618;7.024;2024-02-15T13:44:07;17.30;99.90
27164;DHT22;14685;50.618;7.024;2024-02-15T13:46:34;17.30;99.90
27164;DHT22;14685;50.618;7.024;2024-02-15T13:49:01;17.30;99.90
27164;DHT22;14685;50.618;7.024;2024-02-15T13:51:28;17.30;99.90
27164;DHT22;14685;50.618;7.024;2024-02-15T13:53:55;17.30;99.90
27164;DHT22;14685;50.618;7.024;2024-02-15T13:56:23;17.30;99.90
27164;DHT22;14685;50.618;7.024;2024-02-15T13:58:49;17.30;99.90
27164;DHT22;14685;50.618;7.024;2024-02-15T14:01:16;17.30;99.90
27164;DHT22;14685;50.618;7.024;2024-02-15T14:03:45;17.20;99.90
27164;DHT22;14685;50.618;7.024;2024-02-15T14:06:12;17.30;99.90
27164;DHT22;14685;50.618;7.024;2024-02-15T14:08:42;17.20;99.90
27164;DHT22;14685;50.618;7.024;2024-02-15T14:11:09;17.20;99.90
27164;DHT22;14685;50.618;7.024;2024-02-15T14:13:36;17.20;99.90
27164;DHT22;14685;50.618;7.024;2024-02-15T14:16:03;17.20;99.90
27164;DHT22;14685;50.618;7.024;2024-02-15T14:18:31;17.30;99.90
27164;DHT22;14685;50.618;7.024;2024-02-15T14:20:58;17.20;99.90
27164;DHT22;14685;50.618;7.024;2024-02-15T14:23:28;17.30;99.90
27164;DHT22;14685;50.618;7.024;2024-02-15T14:25:55;17.30;99.90
27164;DHT22;14685;50.618;7.024;2024-02-15T14:28:26;17.20;99.90
27164;DHT22;14685;50.618;7.024;2024-02-15T14:30:54;17.20;99.90
27164;DHT22;14685;50.618;7.024;2024-02-15T14:33:39;17.20;99.90
27164;DHT22;14685;50.618;7.024;2024-02-15T14:36:06;17.20;99.90
27164;DHT22;14685;50.618;7.024;2024-02-15T14:38:33;17.10;99.90
27164;DHT22;14685;50.618;7.024;2024-02-15T14:41:01;17.10;99.90
27164;DHT22;14685;50.618;7.024;2024-02-15T14:43:33;17.10;99.90
27164;DHT22;14685;50.618;7.024;2024-02-15T14:46:00;17.00;99.90
27164;DHT22;14685;50.618;7.024;2024-02-15T14:48:32;17.00;99.90
27164;DHT22;14685;50.618;7.024;2024-02-15T14:51:00;17.00;99.90
27164;DHT22;14685;50.618;7.024;2024-02-15T14:53:27;17.00;99.90
27164;DHT22;14685;50.618;7.024;2024-02-15T14:55:54;16.90;99.90
27164;DHT22;14685;50.618;7.024;2024-02-15T14:58:22;16.90;99.90
27164;DHT22;14685;50.618;7.024;2024-02-15T15:00:49;17.00;99.90
27164;DHT22;14685;50.618;7.024;2024-02-15T15:03:17;17.00;99.90
27164;DHT22;14685;50.618;7.024;2024-02-15T15:05:44;16.90;99.90
27164;DHT22;14685;50.618;7.024;2024-02-15T15:08:31;16.90;99.90
27164;DHT22;14685;50.618;7.024;2024-02-15T15:11:17;16.90;99.90
27164;DHT22;14685;50.618;7.024;2024-02-15T15:14:03;16.80;99.90
27164;DHT22;14685;50.618;7.024;2024-02-15T15:16:32;16.80;99.90
27164;DHT22;14685;50.618;7.024;2024-02-15T15:18:59;16.80;99.90
27164;DHT22;14685;50.618;7.024;2024-02-15T15:21:26;16.80;99.90
27164;DHT22;14685;50.618;7.024;2024-02-15T15:23:55;16.80;99.90
27164;DHT22;14685;50.618;7.024;2024-02-15T15:26:23;16.80;99.90
27164;DHT22;14685;50.618;7.024;2024-02-15T15:28:50;16.80;99.90
27164;DHT22;14685;50.618;7.024;2024-02-15T15:31:17;16.80;99.90
27164;DHT22;14685;50.618;7.024;2024-02-15T15:33:47;16.80;99.90
27164;DHT22;14685;50.618;7.024;2024-02-15T15:36:19;16.80;99.90
27164;DHT22;14685;50.618;7.024;2024-02-15T15:38:49;16.70;99.90
27164;DHT22;14685;50.618;7.024;2024-02-15T15:41:17;16.80;99.90
27164;DHT22;14685;50.618;7.024;2024-02-15T15:43:44;16.80;99.90
27164;DHT22;14685;50.618;7.024;2024-02-15T15:46:16;16.60;99.90
27164;DHT22;14685;50.618;7.024;2024-02-15T15:48:43;16.50;99.90
27164;DHT22;14685;50.618;7.024;2024-02-15T15:51:13;16.50;99.90
27164;DHT22;14685;50.618;7.024;2024-02-15T15:53:42;16.40;99.90
27164;DHT22;14685;50.618;7.024;2024-02-15T15:56:12;16.30;99.90
27164;DHT22;14685;50.618;7.024;2024-02-15T15:58:40;16.30;99.90
27164;DHT22;14685;50.618;7.024;2024-02-15T16:01:12;16.20;99.90
27164;DHT22;14685;50.618;7.024;2024-02-15T16:03:39;16.30;99.90
27164;DHT22;14685;50.618;7.024;2024-02-15T16:06:07;16.30;99.90
27164;DHT22;14685;50.618;7.024;2024-02-15T16:08:39;16.30;99.90
27164;DHT22;14685;50.618;7.024;2024-02-15T16:11:07;16.30;99.90